Capitol Logistics 1902




LCLK
Larnaca International Airport
Larnaca, CY
EDDK
Cologne Bonn Airport
Cologne, DE

Route Details

Aircraft Information
Group: European Fleet
Types: A30F,A31F,B738
Route Data
Demand: D
Distance: 1497nm
Duration: 4h 25m
Recm'd Route: PHA2D PHA M31 GENOS PEDER EVENO UM601 EXELA UN127 LMO UN128 FSK UL608 DISOR LONTA UL608 DOLEV MITNO LURID BEDOX SIMBA AKINI T161 ERNAS Y101 OSBIT L984 ASKIK T840 GULKO GULK1S
Origin Wx: LCLK 272100Z VRB03KT CAVOK 26/10 Q1009 NOSIG
Dest. Wx: EDDK 272120Z AUTO 32008KT CAVOK 11/04 Q1023 NOSIG
Notes:

Financial History
Total Freight: 10,770lbs
Average Load: 10,770lbs/flt
Fuel Used: 42,776lbs
Avg. Fuel Used: 42,776lbs/flt
Fuel Expense: $40,248
Avg. Fuel Expense: $40,248
Avg. Fuel Cost: $0.94/lbs
Total Gross Income: $39,547
Pilot Pay: $259
Total Expenses: $7,511
Total Revenue: $-9,315
Average Revenue: $39,547.44